Time;durP1;ratioP1;P1;durP2;ratioP2;P2;SDS_P1;SDS_P2;PMS_P1;PMS_P2;Temp;Humidity;BMP_temperature;BMP_pressure;BME280_temperature;BME280_humidity;BME280_pressure;Samples;Min_cycle;Max_cycle;Signal;HPM_P1;HPM_P2
2023/06/01 00:00:55;;;;;;;2.58;0.73;;;30.30;99.90;;;;;;5065385;28;20029;-43
2023/06/01 00:03:23;;;;;;;5.47;0.70;;;30.30;99.90;;;;;;5065245;28;20032;-46
2023/06/01 00:05:49;;;;;;;2.58;0.90;;;30.40;99.90;;;;;;5065168;28;20016;-45
2023/06/01 00:08:16;;;;;;;3.65;1.77;;;30.30;99.90;;;;;;5065078;28;20029;-47
2023/06/01 00:10:42;;;;;;;3.90;1.50;;;30.30;99.90;;;;;;5065356;28;20305;-46
2023/06/01 00:13:09;;;;;;;4.47;2.47;;;30.20;99.90;;;;;;5064923;28;20020;-39
2023/06/01 00:15:36;;;;;;;4.80;2.97;;;30.20;99.90;;;;;;5064908;28;20029;-44
2023/06/01 00:18:02;;;;;;;7.50;3.70;;;30.20;99.90;;;;;;5064602;28;20028;-45
2023/06/01 00:20:29;;;;;;;5.70;2.47;;;30.30;99.90;;;;;;5065286;28;20025;-51
2023/06/01 00:25:24;;;;;;;6.22;2.05;;;30.30;99.90;;;;;;5121687;27;20374;-43
2023/06/01 00:27:51;;;;;;;5.55;1.83;;;30.40;99.90;;;;;;5121591;28;20029;-38
2023/06/01 00:30:17;;;;;;;4.95;1.13;;;30.40;99.90;;;;;;5121701;28;20027;-40
2023/06/01 00:32:44;;;;;;;3.15;0.90;;;30.40;99.90;;;;;;5121636;28;20046;-45
2023/06/01 00:35:10;;;;;;;4.30;1.08;;;30.20;99.90;;;;;;5121556;28;20032;-40
2023/06/01 00:37:37;;;;;;;3.17;0.88;;;30.20;99.90;;;;;;5121710;28;20027;-42
2023/06/01 00:40:04;;;;;;;5.97;0.93;;;30.20;99.90;;;;;;5121943;28;20020;-50
2023/06/01 00:42:30;;;;;;;2.67;0.93;;;30.20;99.90;;;;;;5121229;28;20028;-41
2023/06/01 00:44:58;;;;;;;7.35;1.50;;;30.10;99.90;;;;;;5121896;28;20036;-47
2023/06/01 00:47:25;;;;;;;4.60;1.00;;;30.20;99.90;;;;;;5121568;28;20163;-41
2023/06/01 00:49:52;;;;;;;3.63;1.40;;;30.10;99.90;;;;;;5121969;28;20016;-52
2023/06/01 00:52:40;;;;;;;1.95;1.05;;;29.90;99.90;;;;;;5163154;27;20385;-49
2023/06/01 00:55:07;;;;;;;3.72;1.30;;;29.90;99.90;;;;;;5163045;27;20094;-53
2023/06/01 00:57:34;;;;;;;3.92;1.48;;;30.00;99.90;;;;;;5162871;27;20041;-55
2023/06/01 01:00:08;;;;;;;3.42;0.90;;;30.10;99.90;;;;;;5160321;27;20015;-46
2023/06/01 01:02:40;;;;;;;4.03;0.98;;;30.10;99.90;;;;;;5161126;27;20054;-50
2023/06/01 01:05:11;;;;;;;1.80;1.00;;;30.00;99.90;;;;;;5162548;27;20230;-50
2023/06/01 01:07:54;;;;;;;6.75;0.90;;;30.00;99.90;;;;;;5160380;27;20014;-56
2023/06/01 01:10:31;;;;;;;2.83;0.60;;;29.90;99.90;;;;;;5160632;27;20046;-52
2023/06/01 01:13:18;;;;;;;1.85;0.65;;;30.00;99.90;;;;;;5158015;27;20298;-48
2023/06/01 01:15:54;;;;;;;3.50;0.90;;;30.00;99.90;;;;;;5160229;27;20027;-51
2023/06/01 01:18:35;;;;;;;3.13;0.68;;;30.10;99.90;;;;;;5158782;27;20025;-54
2023/06/01 01:21:21;;;;;;;2.88;0.60;;;30.10;99.90;;;;;;5151838;27;20027;-46
2023/06/01 01:24:09;;;;;;;1.65;0.43;;;30.20;99.90;;;;;;5152906;27;20398;-48
2023/06/01 01:26:51;;;;;;;4.05;0.50;;;30.20;99.90;;;;;;5153293;27;20095;-48
2023/06/01 01:29:22;;;;;;;3.65;0.57;;;30.20;99.90;;;;;;5142223;27;20306;-55
2023/06/01 01:31:50;;;;;;;2.47;0.60;;;30.30;99.90;;;;;;5142024;27;20112;-54
2023/06/01 01:34:20;;;;;;;2.53;0.68;;;30.60;99.90;;;;;;5150757;27;20070;-54
2023/06/01 01:36:47;;;;;;;1.77;0.77;;;30.70;99.90;;;;;;5149026;27;20018;-54
2023/06/01 01:39:13;;;;;;;1.85;0.43;;;30.70;99.90;;;;;;5148316;27;20019;-53
2023/06/01 01:41:40;;;;;;;0.75;0.40;;;30.70;99.90;;;;;;5150686;27;20050;-53
2023/06/01 01:44:06;;;;;;;2.92;0.40;;;30.70;99.90;;;;;;5150226;27;20031;-56
2023/06/01 01:46:44;;;;;;;3.47;0.40;;;30.70;99.90;;;;;;5152705;27;20069;-51
2023/06/01 01:49:49;;;;;;;2.35;0.60;;;30.60;99.90;;;;;;5148217;27;20023;-50
2023/06/01 01:52:23;;;;;;;0.68;0.32;;;30.60;99.90;;;;;;5129504;27;20050;-51
2023/06/01 01:54:51;;;;;;;0.73;0.30;;;30.50;99.90;;;;;;5152858;27;20010;-53
2023/06/01 01:57:19;;;;;;;1.90;0.30;;;30.50;99.90;;;;;;5155976;27;20042;-53
2023/06/01 01:59:46;;;;;;;3.38;0.30;;;30.40;99.90;;;;;;5150889;27;20019;-53
2023/06/01 02:02:16;;;;;;;2.40;0.30;;;30.30;99.90;;;;;;5152786;27;20032;-63
2023/06/01 02:04:43;;;;;;;2.20;0.60;;;30.30;99.90;;;;;;5127413;27;20032;-61
2023/06/01 02:07:10;;;;;;;1.17;0.43;;;30.20;99.90;;;;;;5127817;28;20011;-52
2023/06/01 02:09:37;;;;;;;4.82;0.80;;;30.10;99.90;;;;;;5132218;27;20015;-52
2023/06/01 02:12:04;;;;;;;2.88;0.88;;;30.10;99.90;;;;;;5145422;27;20042;-52
2023/06/01 02:14:30;;;;;;;3.72;0.52;;;30.10;99.90;;;;;;5142000;27;20244;-53
2023/06/01 02:17:02;;;;;;;2.33;0.70;;;30.00;99.90;;;;;;5133688;27;20030;-56
2023/06/01 02:19:29;;;;;;;3.58;0.85;;;30.00;99.90;;;;;;5127077;28;20024;-50
2023/06/01 02:21:55;;;;;;;2.83;0.50;;;29.90;99.90;;;;;;5128526;27;20068;-57
2023/06/01 02:24:22;;;;;;;3.08;0.50;;;29.90;99.90;;;;;;5126814;28;20264;-52
2023/06/01 02:26:52;;;;;;;1.63;0.28;;;29.80;99.90;;;;;;5127038;27;20383;-54
2023/06/01 02:29:21;;;;;;;2.92;0.57;;;29.80;99.90;;;;;;5144836;27;20094;-49
2023/06/01 02:31:49;;;;;;;3.63;0.30;;;29.80;99.90;;;;;;5147870;27;20039;-49
2023/06/01 02:34:16;;;;;;;1.35;0.30;;;29.70;99.90;;;;;;5147411;27;20192;-56
2023/06/01 02:36:42;;;;;;;3.30;0.38;;;29.70;99.90;;;;;;5147638;27;20026;-51
2023/06/01 02:39:09;;;;;;;3.58;0.30;;;29.70;99.90;;;;;;5147385;27;20021;-50
2023/06/01 02:41:35;;;;;;;3.53;0.38;;;29.60;99.90;;;;;;5147525;27;20035;-53
2023/06/01 02:44:02;;;;;;;1.67;0.40;;;29.60;99.90;;;;;;5143995;27;20019;-50
2023/06/01 02:46:29;;;;;;;2.40;0.20;;;29.50;99.90;;;;;;5147385;27;20129;-55
2023/06/01 02:48:55;;;;;;;4.03;0.40;;;29.50;99.90;;;;;;5147214;27;20115;-52
2023/06/01 02:51:22;;;;;;;3.03;0.60;;;29.50;99.90;;;;;;5140434;27;20032;-51
2023/06/01 02:53:49;;;;;;;2.97;0.20;;;29.40;99.90;;;;;;5133874;27;20027;-53
2023/06/01 02:56:15;;;;;;;3.60;0.52;;;29.40;99.90;;;;;;5135169;27;20233;-47
2023/06/01 02:58:42;;;;;;;2.15;0.50;;;29.40;99.90;;;;;;5130449;27;20020;-51
2023/06/01 03:01:12;;;;;;;1.63;0.70;;;29.40;99.90;;;;;;5126540;28;20031;-49
2023/06/01 03:03:40;;;;;;;4.45;0.55;;;29.40;99.90;;;;;;5126398;27;20031;-50
2023/06/01 03:06:08;;;;;;;2.88;0.52;;;29.40;99.90;;;;;;5126453;28;20045;-50
2023/06/01 03:08:35;;;;;;;1.23;0.40;;;29.40;99.90;;;;;;5126141;28;20342;-51
2023/06/01 03:11:02;;;;;;;1.88;0.40;;;29.40;99.90;;;;;;5126079;27;20031;-47
2023/06/01 03:13:28;;;;;;;5.07;0.82;;;29.40;99.90;;;;;;5125870;28;20016;-47
2023/06/01 03:15:55;;;;;;;1.33;0.30;;;29.40;99.90;;;;;;5125478;28;20016;-50
2023/06/01 03:18:22;;;;;;;1.33;0.40;;;29.40;99.90;;;;;;5125950;28;20023;-50
2023/06/01 03:20:49;;;;;;;4.20;0.40;;;29.40;99.90;;;;;;5126075;28;20030;-56
2023/06/01 03:23:17;;;;;;;2.65;0.38;;;29.40;99.90;;;;;;5125911;28;20019;-47
2023/06/01 03:25:43;;;;;;;2.40;0.43;;;29.40;99.90;;;;;;5129861;27;20042;-49
2023/06/01 03:28:10;;;;;;;2.05;0.50;;;29.40;99.90;;;;;;5137243;27;20038;-47
2023/06/01 03:30:36;;;;;;;3.63;0.50;;;29.40;99.90;;;;;;5146217;27;20093;-50
2023/06/01 03:33:03;;;;;;;5.18;0.30;;;29.40;99.90;;;;;;5146353;27;20023;-51
2023/06/01 03:35:29;;;;;;;2.30;0.50;;;29.50;99.90;;;;;;5146254;27;20011;-55
2023/06/01 03:37:56;;;;;;;4.22;0.30;;;29.50;99.90;;;;;;5132213;27;20023;-51
2023/06/01 03:40:22;;;;;;;2.25;0.40;;;29.50;99.90;;;;;;5145761;27;20124;-47
2023/06/01 03:42:49;;;;;;;1.73;0.30;;;29.50;99.90;;;;;;5146083;27;20354;-51
2023/06/01 03:45:16;;;;;;;1.15;0.30;;;29.50;99.90;;;;;;5146164;27;20039;-49
2023/06/01 03:47:43;;;;;;;5.18;0.57;;;29.50;99.90;;;;;;5146042;27;20019;-52
2023/06/01 03:50:10;;;;;;;3.75;0.57;;;29.60;99.90;;;;;;5145779;27;20011;-48
2023/06/01 03:52:37;;;;;;;1.25;0.40;;;29.50;99.90;;;;;;5145703;27;20027;-50
2023/06/01 03:55:10;;;;;;;3.53;0.50;;;29.60;99.90;;;;;;5141431;27;20058;-50
2023/06/01 03:57:37;;;;;;;2.65;0.40;;;29.60;99.90;;;;;;5125311;28;20016;-53
2023/06/01 04:00:29;;;;;;;2.83;0.43;;;29.60;99.90;;;;;;5125019;28;20028;-51
2023/06/01 04:03:00;;;;;;;3.53;0.70;;;29.70;99.90;;;;;;5125049;28;20015;-50
2023/06/01 04:05:26;;;;;;;2.88;0.65;;;29.60;99.90;;;;;;5137124;27;20039;-52
2023/06/01 04:07:55;;;;;;;3.35;0.60;;;29.70;99.90;;;;;;5145939;27;20027;-52
2023/06/01 04:10:22;;;;;;;3.75;0.57;;;29.70;99.90;;;;;;5145463;27;20023;-52
2023/06/01 04:12:50;;;;;;;2.67;0.65;;;29.70;99.90;;;;;;5146403;27;20397;-54
2023/06/01 04:15:19;;;;;;;4.82;0.60;;;29.60;99.90;;;;;;5145714;27;20023;-50
2023/06/01 04:17:45;;;;;;;4.82;0.90;;;29.70;99.90;;;;;;5129853;27;20150;-51
2023/06/01 04:20:17;;;;;;;3.17;0.82;;;29.70;99.90;;;;;;5124888;28;20086;-50
2023/06/01 04:22:45;;;;;;;4.47;0.70;;;29.70;99.90;;;;;;5124645;28;20027;-53
2023/06/01 04:25:23;;;;;;;3.72;0.70;;;29.80;99.90;;;;;;5124971;27;20028;-52
2023/06/01 04:27:54;;;;;;;4.05;0.70;;;29.80;99.90;;;;;;5124612;28;20019;-51
2023/06/01 04:30:22;;;;;;;8.52;0.80;;;29.80;99.90;;;;;;5133190;27;20023;-52
2023/06/01 04:32:49;;;;;;;4.22;0.73;;;29.80;99.90;;;;;;5145262;27;20058;-53
2023/06/01 04:35:15;;;;;;;2.42;0.57;;;29.90;99.90;;;;;;5145243;27;20322;-55
2023/06/01 04:37:43;;;;;;;3.40;0.80;;;29.90;99.90;;;;;;5144051;27;20034;-59
2023/06/01 04:40:10;;;;;;;3.10;0.75;;;29.90;99.90;;;;;;5145293;27;20106;-53
2023/06/01 04:42:42;;;;;;;2.40;0.60;;;29.80;99.90;;;;;;5145347;27;20250;-54
2023/06/01 04:45:13;;;;;;;3.47;0.80;;;29.80;99.90;;;;;;5144944;27;20082;-54
2023/06/01 04:47:40;;;;;;;3.50;0.70;;;29.80;99.90;;;;;;5130616;27;20027;-51
2023/06/01 04:50:08;;;;;;;5.90;0.80;;;29.70;99.90;;;;;;5124390;28;20037;-48
2023/06/01 04:52:39;;;;;;;6.18;0.82;;;29.70;99.90;;;;;;5124083;28;20031;-52
2023/06/01 04:55:07;;;;;;;2.92;0.57;;;29.60;99.90;;;;;;5124368;28;20212;-53
2023/06/01 04:57:38;;;;;;;2.47;0.60;;;29.60;99.90;;;;;;5124231;28;20035;-52
2023/06/01 05:00:12;;;;;;;4.25;0.50;;;29.60;99.90;;;;;;5124313;28;20023;-49
2023/06/01 05:02:40;;;;;;;2.92;0.60;;;29.70;99.90;;;;;;5124301;28;20037;-51
2023/06/01 05:05:08;;;;;;;4.57;0.60;;;29.70;99.90;;;;;;5124289;28;20027;-52
2023/06/01 05:07:36;;;;;;;2.97;0.50;;;29.60;99.90;;;;;;5124187;28;20082;-51
2023/06/01 05:10:05;;;;;;;5.15;0.80;;;29.60;99.90;;;;;;5124542;28;20082;-50
2023/06/01 05:12:36;;;;;;;3.00;0.50;;;29.60;99.90;;;;;;5124011;28;20043;-50
2023/06/01 05:15:05;;;;;;;2.70;0.70;;;29.60;99.90;;;;;;5124131;28;20337;-50
2023/06/01 05:17:32;;;;;;;3.80;0.57;;;29.60;99.90;;;;;;5124266;28;20032;-55
2023/06/01 05:19:58;;;;;;;1.90;0.52;;;29.60;99.90;;;;;;5124272;28;20019;-54
2023/06/01 05:22:25;;;;;;;3.17;0.60;;;29.60;99.90;;;;;;5124784;28;20358;-62
2023/06/01 05:24:52;;;;;;;3.75;0.50;;;29.60;99.90;;;;;;5129881;28;20031;-53
2023/06/01 05:27:19;;;;;;;2.88;0.52;;;29.60;99.90;;;;;;5145158;27;20023;-56
2023/06/01 05:29:45;;;;;;;4.22;0.70;;;29.60;99.90;;;;;;5144767;27;20015;-53
2023/06/01 05:32:12;;;;;;;3.10;0.50;;;29.60;99.90;;;;;;5145165;27;20035;-53
2023/06/01 05:34:38;;;;;;;2.95;0.52;;;29.60;99.90;;;;;;5144491;27;20039;-52
2023/06/01 05:37:05;;;;;;;1.83;0.60;;;29.60;99.90;;;;;;5145578;27;20027;-54
2023/06/01 05:39:31;;;;;;;2.53;0.57;;;29.60;99.90;;;;;;5148585;27;20019;-54
2023/06/01 05:41:58;;;;;;;4.43;0.70;;;29.60;99.90;;;;;;5149090;27;20023;-54
2023/06/01 05:44:25;;;;;;;3.95;0.70;;;29.60;99.90;;;;;;5148462;27;20023;-54
2023/06/01 05:46:52;;;;;;;2.53;0.63;;;29.60;99.90;;;;;;5148945;27;20086;-54
2023/06/01 05:49:19;;;;;;;3.58;0.77;;;29.60;99.90;;;;;;5148225;27;20067;-54
2023/06/01 05:51:46;;;;;;;3.50;0.57;;;29.60;99.90;;;;;;5148193;27;20050;-51
2023/06/01 05:54:13;;;;;;;4.65;0.85;;;29.50;99.90;;;;;;5148481;27;20307;-52
2023/06/01 05:56:40;;;;;;;5.53;0.85;;;29.60;99.90;;;;;;5148962;27;20019;-49
2023/06/01 05:59:07;;;;;;;5.55;0.60;;;29.60;99.90;;;;;;5148334;27;20242;-51
2023/06/01 06:01:33;;;;;;;4.53;0.98;;;29.60;99.90;;;;;;5148718;27;20092;-52
2023/06/01 06:04:00;;;;;;;3.10;0.52;;;29.60;99.90;;;;;;5148128;27;20011;-54
2023/06/01 06:06:27;;;;;;;5.45;0.90;;;29.60;99.90;;;;;;5148422;27;20033;-51
2023/06/01 06:08:53;;;;;;;3.35;0.70;;;29.50;99.90;;;;;;5148328;27;20042;-50
2023/06/01 06:11:21;;;;;;;4.00;0.70;;;29.60;99.90;;;;;;5148158;27;20027;-51
2023/06/01 06:13:51;;;;;;;5.25;0.75;;;29.50;99.90;;;;;;5147732;27;20075;-50
2023/06/01 06:16:17;;;;;;;3.70;0.60;;;29.50;99.90;;;;;;5148157;27;20035;-49
2023/06/01 06:18:44;;;;;;;4.72;0.70;;;29.50;99.90;;;;;;5147828;27;20207;-48
2023/06/01 06:21:10;;;;;;;6.18;0.73;;;29.50;99.90;;;;;;5148098;27;20030;-50
2023/06/01 06:23:39;;;;;;;3.65;0.52;;;29.50;99.90;;;;;;5147758;27;20027;-48
2023/06/01 06:26:06;;;;;;;2.40;0.88;;;29.50;99.90;;;;;;5148038;27;20087;-52
2023/06/01 06:28:33;;;;;;;8.43;1.25;;;29.40;99.90;;;;;;5147538;27;20019;-53
2023/06/01 06:31:00;;;;;;;5.70;0.70;;;29.40;99.90;;;;;;5147723;27;20042;-52
2023/06/01 06:33:26;;;;;;;5.95;0.77;;;29.40;99.90;;;;;;5147457;27;20048;-48
2023/06/01 06:35:53;;;;;;;4.38;0.90;;;29.30;99.90;;;;;;5147464;27;20031;-48
2023/06/01 06:38:20;;;;;;;3.38;0.68;;;29.40;99.90;;;;;;5147375;27;20031;-48
2023/06/01 06:40:46;;;;;;;6.03;0.70;;;29.30;99.90;;;;;;5147514;27;20051;-58
2023/06/01 06:43:13;;;;;;;3.55;0.77;;;29.30;99.90;;;;;;5147798;27;20031;-47
2023/06/01 06:45:41;;;;;;;4.13;0.90;;;29.30;99.90;;;;;;5147735;27;20035;-51
2023/06/01 06:48:08;;;;;;;6.32;0.85;;;29.20;99.90;;;;;;5147092;27;20029;-52
2023/06/01 06:50:35;;;;;;;4.68;1.02;;;29.20;99.90;;;;;;5147020;27;20081;-52
2023/06/01 06:53:01;;;;;;;3.70;0.60;;;29.20;99.90;;;;;;5147334;27;20034;-50
2023/06/01 06:55:28;;;;;;;5.28;0.70;;;29.20;99.90;;;;;;5147403;27;20023;-50
2023/06/01 06:57:55;;;;;;;3.05;0.60;;;29.20;99.90;;;;;;5147122;27;20035;-49
2023/06/01 07:00:22;;;;;;;2.90;0.70;;;29.20;99.90;;;;;;5147759;27;20030;-53
2023/06/01 07:02:48;;;;;;;6.25;0.90;;;29.20;99.90;;;;;;5147207;27;20238;-51
2023/06/01 07:05:15;;;;;;;8.88;0.95;;;29.20;99.90;;;;;;5146806;27;20332;-50
2023/06/01 07:07:42;;;;;;;3.70;0.80;;;29.20;99.90;;;;;;5146833;27;20031;-51
2023/06/01 07:10:08;;;;;;;3.38;0.82;;;29.20;99.90;;;;;;5146811;27;20015;-52
2023/06/01 07:12:35;;;;;;;6.18;0.70;;;29.20;99.90;;;;;;5146742;27;20033;-53
2023/06/01 07:15:02;;;;;;;2.95;0.77;;;29.20;99.90;;;;;;5146637;27;20090;-51
2023/06/01 07:17:29;;;;;;;4.18;0.93;;;29.20;99.90;;;;;;5126262;28;20047;-53
2023/06/01 07:19:56;;;;;;;4.63;0.90;;;29.30;99.90;;;;;;5126426;28;20068;-53
2023/06/01 07:22:22;;;;;;;5.20;0.93;;;29.20;99.90;;;;;;5126475;28;20170;-45
2023/06/01 07:24:49;;;;;;;4.78;1.10;;;29.30;99.90;;;;;;5126454;28;20034;-51
2023/06/01 07:27:16;;;;;;;4.38;0.90;;;29.30;99.90;;;;;;5126250;28;20313;-52
2023/06/01 07:29:44;;;;;;;5.03;0.70;;;29.30;99.90;;;;;;5125831;28;20032;-51
2023/06/01 07:32:11;;;;;;;2.60;0.70;;;29.20;99.90;;;;;;5126458;27;20248;-49
2023/06/01 07:34:37;;;;;;;5.00;0.90;;;29.30;99.90;;;;;;5125497;28;20055;-49
2023/06/01 07:37:04;;;;;;;3.42;0.80;;;29.30;99.90;;;;;;5126265;28;20053;-55
2023/06/01 07:39:31;;;;;;;3.35;0.60;;;29.30;99.90;;;;;;5125959;28;20203;-53
2023/06/01 07:41:57;;;;;;;5.85;0.90;;;29.30;99.90;;;;;;5125964;28;20095;-50
2023/06/01 07:44:24;;;;;;;6.25;0.80;;;29.30;99.90;;;;;;5125763;28;20062;-56
2023/06/01 07:46:51;;;;;;;5.65;1.17;;;29.30;99.90;;;;;;5125779;28;20023;-48
2023/06/01 07:49:17;;;;;;;4.88;0.70;;;29.40;99.90;;;;;;5125524;28;20054;-44
2023/06/01 07:51:44;;;;;;;3.88;0.82;;;29.30;99.90;;;;;;5125258;28;20303;-51
2023/06/01 07:54:11;;;;;;;3.45;0.80;;;29.40;99.90;;;;;;5125362;28;20249;-47
2023/06/01 07:56:37;;;;;;;5.05;0.80;;;29.30;99.90;;;;;;5125733;28;20072;-54
2023/06/01 07:59:04;;;;;;;3.53;0.65;;;29.30;99.90;;;;;;5125399;28;20391;-58
2023/06/01 08:01:32;;;;;;;3.45;0.77;;;29.30;99.90;;;;;;5124626;28;20050;-47
2023/06/01 08:04:01;;;;;;;2.40;0.80;;;29.30;99.90;;;;;;5125490;28;20064;-52
2023/06/01 08:06:28;;;;;;;5.38;0.95;;;29.30;99.90;;;;;;5125471;27;20194;-50
2023/06/01 08:08:55;;;;;;;3.50;0.73;;;29.40;99.90;;;;;;5125067;28;20024;-54
2023/06/01 08:11:23;;;;;;;2.53;0.80;;;29.40;99.90;;;;;;5125365;28;20303;-51
2023/06/01 08:13:50;;;;;;;5.70;0.88;;;29.40;99.90;;;;;;5125243;28;20027;-51
2023/06/01 08:16:17;;;;;;;4.47;1.00;;;29.40;99.90;;;;;;5125435;28;20072;-53
2023/06/01 08:18:44;;;;;;;4.32;0.80;;;29.40;99.90;;;;;;5124927;28;20319;-52
2023/06/01 08:21:10;;;;;;;3.78;0.80;;;29.40;99.90;;;;;;5125189;28;20330;-50
2023/06/01 08:23:37;;;;;;;3.05;0.60;;;29.40;99.90;;;;;;5125320;28;20094;-50
2023/06/01 08:26:04;;;;;;;4.20;0.98;;;29.40;99.90;;;;;;5124985;28;20076;-53
2023/06/01 08:28:32;;;;;;;5.82;0.70;;;29.40;99.90;;;;;;5124642;28;20090;-54
2023/06/01 08:30:59;;;;;;;3.53;0.60;;;29.40;99.90;;;;;;5124886;28;20087;-50
2023/06/01 08:33:25;;;;;;;2.15;0.63;;;29.40;99.90;;;;;;5125178;28;20028;-53
2023/06/01 08:35:53;;;;;;;2.63;0.75;;;29.40;99.90;;;;;;5124812;28;20055;-50
2023/06/01 08:38:20;;;;;;;3.13;1.00;;;29.40;99.90;;;;;;5124663;28;20043;-52
2023/06/01 08:40:48;;;;;;;1.92;0.70;;;29.40;99.90;;;;;;5124927;28;20133;-51
2023/06/01 08:43:22;;;;;;;4.20;0.95;;;29.40;99.90;;;;;;5124450;28;20032;-50
2023/06/01 08:45:51;;;;;;;4.60;0.88;;;29.40;99.90;;;;;;5124796;28;20090;-51
2023/06/01 08:48:19;;;;;;;3.22;0.88;;;29.40;99.90;;;;;;5124394;28;20023;-54
2023/06/01 08:50:50;;;;;;;1.92;0.70;;;29.40;99.90;;;;;;5124374;28;20034;-53
2023/06/01 08:53:21;;;;;;;5.05;0.82;;;29.40;99.90;;;;;;5124854;28;20117;-53
2023/06/01 08:55:56;;;;;;;0.77;0.60;;;29.30;99.90;;;;;;5124539;28;20259;-51
2023/06/01 08:58:24;;;;;;;3.05;0.90;;;29.40;99.90;;;;;;5124813;28;20023;-51
2023/06/01 09:00:53;;;;;;;3.20;0.90;;;29.30;99.90;;;;;;5124531;28;20295;-50
2023/06/01 09:03:20;;;;;;;1.85;0.70;;;29.30;99.90;;;;;;5124450;28;20098;-51
2023/06/01 09:05:47;;;;;;;1.55;0.70;;;29.40;99.90;;;;;;5124514;28;20287;-51
2023/06/01 09:08:13;;;;;;;3.80;0.80;;;29.30;99.90;;;;;;5124367;28;20025;-48
2023/06/01 09:10:40;;;;;;;2.28;0.70;;;29.30;99.90;;;;;;5124745;28;20106;-52
2023/06/01 09:13:07;;;;;;;2.45;0.80;;;29.30;99.90;;;;;;5126229;28;20032;-55
2023/06/01 09:15:34;;;;;;;2.47;0.90;;;29.30;99.90;;;;;;5128578;27;20023;-52
2023/06/01 09:18:13;;;;;;;2.90;0.77;;;29.30;99.90;;;;;;5128584;28;20015;-52
2023/06/01 09:20:41;;;;;;;1.85;0.77;;;29.30;99.90;;;;;;5128487;28;20036;-55
2023/06/01 09:23:07;;;;;;;4.07;0.95;;;29.30;99.90;;;;;;5128381;28;20047;-56
2023/06/01 09:25:34;;;;;;;2.45;1.00;;;29.30;99.90;;;;;;5128578;28;20032;-58
2023/06/01 09:28:02;;;;;;;3.55;0.88;;;29.30;99.90;;;;;;5128309;28;20027;-47
2023/06/01 09:30:47;;;;;;;3.75;1.00;;;29.30;99.90;;;;;;5128034;28;20032;-56
2023/06/01 09:33:20;;;;;;;3.90;0.90;;;29.30;99.90;;;;;;5128202;28;20096;-52
2023/06/01 09:35:49;;;;;;;4.15;0.95;;;29.30;99.90;;;;;;5128467;28;20023;-55
2023/06/01 09:38:24;;;;;;;3.88;0.90;;;29.30;99.90;;;;;;5128405;28;20019;-52
2023/06/01 09:40:59;;;;;;;1.52;0.73;;;29.30;99.90;;;;;;5128282;28;20299;-56
2023/06/01 09:43:26;;;;;;;1.42;0.73;;;29.30;99.90;;;;;;5128200;28;20039;-58
2023/06/01 09:46:08;;;;;;;3.05;0.85;;;29.30;99.90;;;;;;5127981;28;20027;-54
2023/06/01 09:48:36;;;;;;;3.22;0.85;;;29.30;99.90;;;;;;5128471;28;20043;-59
2023/06/01 09:51:03;;;;;;;2.35;1.00;;;29.30;99.90;;;;;;5127633;28;20266;-60
2023/06/01 09:53:41;;;;;;;2.42;0.80;;;29.20;99.90;;;;;;5127636;28;20028;-55
2023/06/01 09:56:07;;;;;;;3.47;1.00;;;29.30;99.90;;;;;;5128125;28;20030;-52
2023/06/01 09:58:39;;;;;;;3.50;1.00;;;29.30;99.90;;;;;;5127638;28;20028;-50
2023/06/01 10:01:08;;;;;;;6.30;0.73;;;29.30;99.90;;;;;;5127637;28;20027;-54
2023/06/01 10:03:37;;;;;;;5.78;0.85;;;29.30;99.90;;;;;;5127459;28;20315;-55
2023/06/01 10:06:04;;;;;;;3.22;0.90;;;29.30;99.90;;;;;;5127868;28;20039;-57
2023/06/01 10:08:32;;;;;;;3.15;1.08;;;29.30;99.90;;;;;;5127372;28;20038;-50
2023/06/01 10:10:58;;;;;;;1.80;0.90;;;29.30;99.90;;;;;;5127925;28;20318;-52
2023/06/01 10:13:25;;;;;;;1.67;0.88;;;29.30;99.90;;;;;;5127714;28;20031;-52
2023/06/01 10:15:55;;;;;;;2.30;0.93;;;29.30;99.90;;;;;;5127328;28;20284;-52
2023/06/01 10:18:22;;;;;;;3.33;1.10;;;29.30;99.90;;;;;;5127286;28;20026;-50
2023/06/01 10:20:49;;;;;;;1.83;0.88;;;29.30;99.90;;;;;;5127450;28;20102;-52
2023/06/01 10:23:16;;;;;;;3.70;0.82;;;29.30;99.90;;;;;;5127231;27;20045;-51
2023/06/01 10:25:47;;;;;;;4.18;1.00;;;29.30;99.90;;;;;;5127213;28;20032;-53
2023/06/01 10:28:15;;;;;;;7.70;1.20;;;29.30;99.90;;;;;;5126941;28;20055;-54
2023/06/01 10:30:41;;;;;;;4.55;1.10;;;29.30;99.90;;;;;;5127265;28;20028;-49
2023/06/01 10:33:08;;;;;;;5.07;1.33;;;29.40;99.90;;;;;;5126903;28;20023;-51
2023/06/01 10:35:44;;;;;;;6.07;2.08;;;29.30;99.90;;;;;;5126806;28;20271;-51
2023/06/01 10:38:12;;;;;;;7.13;1.98;;;29.30;99.90;;;;;;5126933;28;20027;-52
2023/06/01 10:40:40;;;;;;;7.55;4.00;;;29.30;99.90;;;;;;5127029;28;20310;-50
2023/06/01 10:43:08;;;;;;;12.02;8.75;;;29.30;99.90;;;;;;5126927;28;20073;-51
2023/06/01 10:45:43;;;;;;;13.82;10.90;;;29.30;99.90;;;;;;5127310;28;20318;-45
2023/06/01 10:48:12;;;;;;;13.65;7.45;;;29.30;99.90;;;;;;5126699;28;20095;-52
2023/06/01 10:50:40;;;;;;;10.98;7.28;;;29.40;99.90;;;;;;5126650;28;20032;-48
2023/06/01 10:53:29;;;;;;;6.75;4.93;;;29.40;99.90;;;;;;5126773;28;20196;-51
2023/06/01 10:56:17;;;;;;;8.95;3.10;;;29.40;99.90;;;;;;5126797;27;20456;-46
2023/06/01 10:58:44;;;;;;;6.30;2.17;;;29.30;99.90;;;;;;5126526;28;20215;-49
2023/06/01 11:01:17;;;;;;;4.15;2.22;;;29.30;99.90;;;;;;5126641;28;20299;-53
2023/06/01 11:03:50;;;;;;;4.68;2.50;;;29.30;99.90;;;;;;5127031;27;20322;-48
2023/06/01 11:06:26;;;;;;;;;;;29.30;99.90;;;;;;5140107;27;20035;-51
2023/06/01 11:08:55;;;;;;;8.13;4.43;;;29.50;99.90;;;;;;5146896;27;19904;-47
2023/06/01 11:11:23;;;;;;;8.73;6.13;;;29.80;99.90;;;;;;5147052;27;20049;-51
2023/06/01 11:14:09;;;;;;;8.20;5.00;;;29.90;99.90;;;;;;5146839;27;20031;-47
2023/06/01 11:16:36;;;;;;;8.63;4.55;;;30.00;99.90;;;;;;5147476;27;20019;-54
2023/06/01 11:19:06;;;;;;;6.80;4.78;;;30.10;99.90;;;;;;5146890;27;20059;-52
2023/06/01 11:21:35;;;;;;;34.58;31.52;;;30.10;99.90;;;;;;5147282;27;20027;-54
2023/06/01 11:24:11;;;;;;;119.38;110.13;;;30.20;99.90;;;;;;5146254;27;20200;-56
2023/06/01 11:26:40;;;;;;;85.45;78.97;;;30.20;99.90;;;;;;5145000;27;20058;-53
2023/06/01 11:29:17;;;;;;;58.30;53.67;;;30.20;99.90;;;;;;5146138;27;20291;-56
2023/06/01 11:31:49;;;;;;;63.83;58.75;;;30.20;99.90;;;;;;5146609;27;20057;-57
2023/06/01 11:34:18;;;;;;;73.00;67.07;;;30.30;99.90;;;;;;5146429;27;20239;-53
2023/06/01 11:36:47;;;;;;;98.28;90.28;;;30.30;99.90;;;;;;5145939;27;20046;-53
2023/06/01 11:39:26;;;;;;;67.95;62.38;;;30.30;99.90;;;;;;5146489;27;20034;-54
2023/06/01 11:42:14;;;;;;;56.15;51.60;;;30.30;99.90;;;;;;5146803;27;20148;-54
2023/06/01 11:44:44;;;;;;;47.45;43.47;;;30.30;99.90;;;;;;5145872;27;20215;-56
2023/06/01 11:47:12;;;;;;;38.25;35.05;;;30.20;99.90;;;;;;5146312;27;20088;-57
2023/06/01 11:49:44;;;;;;;38.38;34.75;;;30.20;99.90;;;;;;5146013;27;20047;-49
2023/06/01 11:52:10;;;;;;;;;;;30.20;99.90;;;;;;5136030;27;20074;-51
2023/06/01 11:54:38;;;;;;;23.40;21.38;;;30.10;99.90;;;;;;5125246;28;19903;-54
2023/06/01 11:57:08;;;;;;;24.35;22.30;;;30.10;99.90;;;;;;5125931;28;20020;-54
2023/06/01 11:59:39;;;;;;;21.85;20.00;;;30.10;99.90;;;;;;5125735;27;20082;-54
2023/06/01 12:02:24;;;;;;;18.40;16.55;;;30.20;99.90;;;;;;5125793;28;20050;-56
2023/06/01 12:05:12;;;;;;;16.85;15.45;;;30.10;99.90;;;;;;5125239;28;20035;-56
2023/06/01 12:07:49;;;;;;;17.73;16.20;;;30.10;99.90;;;;;;5125474;28;20031;-50
2023/06/01 12:10:20;;;;;;;16.30;14.93;;;30.10;99.90;;;;;;5125267;28;20074;-56
2023/06/01 12:12:46;;;;;;;13.73;12.52;;;30.10;99.90;;;;;;5125134;28;20112;-51
2023/06/01 12:15:18;;;;;;;13.70;12.60;;;30.10;99.90;;;;;;5125689;28;20055;-51
2023/06/01 12:17:57;;;;;;;14.27;13.00;;;30.10;99.90;;;;;;5124969;28;20019;-52
2023/06/01 12:20:37;;;;;;;12.43;11.43;;;30.10;99.90;;;;;;5125483;28;20033;-51
2023/06/01 12:23:15;;;;;;;10.77;9.88;;;30.10;99.90;;;;;;5128955;27;20031;-52
2023/06/01 12:25:57;;;;;;;10.48;9.35;;;30.10;99.90;;;;;;5125264;28;20144;-51
2023/06/01 12:28:25;;;;;;;10.40;9.50;;;30.10;99.90;;;;;;5125186;28;20011;-50
2023/06/01 12:31:12;;;;;;;9.55;8.63;;;30.10;99.90;;;;;;5124896;28;20285;-53
2023/06/01 12:33:40;;;;;;;8.38;7.68;;;30.10;99.90;;;;;;5124572;28;20043;-51
2023/06/01 12:36:08;;;;;;;7.78;7.18;;;30.10;99.90;;;;;;5125157;28;20038;-52
2023/06/01 12:38:51;;;;;;;7.20;6.57;;;30.10;99.90;;;;;;5128160;27;20011;-49
2023/06/01 12:41:18;;;;;;;;;;;30.10;99.90;;;;;;5146009;27;20080;-49
2023/06/01 12:43:45;;;;;;;6.40;5.80;;;30.10;99.90;;;;;;5126708;27;19900;-52
2023/06/01 12:46:24;;;;;;;7.00;6.22;;;30.00;99.90;;;;;;5124424;28;20027;-51
2023/06/01 12:48:54;;;;;;;7.60;5.35;;;30.10;99.90;;;;;;5125092;28;20039;-49
2023/06/01 12:51:23;;;;;;;5.82;5.05;;;30.10;99.90;;;;;;5124503;28;20377;-51
2023/06/01 12:53:51;;;;;;;5.88;5.38;;;30.10;99.90;;;;;;5125233;28;20039;-48
2023/06/01 12:56:18;;;;;;;5.72;5.18;;;30.10;99.90;;;;;;5124763;28;20023;-46
2023/06/01 12:58:44;;;;;;;5.03;4.53;;;30.10;99.90;;;;;;5124594;28;20080;-48